createdAt,value
2023-01-13T00:01:26.681Z,96758.38
2023-01-13T00:03:53.361Z,96736.16
2023-01-13T00:06:23.704Z,96750.59
2023-01-13T00:08:50.795Z,96740.69
2023-01-13T00:11:17.985Z,96759.16
2023-01-13T00:13:44.692Z,96730.53
2023-01-13T00:16:12.655Z,96726.75
2023-01-13T00:18:39.365Z,96753.84
2023-01-13T00:21:15.979Z,96760.50
2023-01-13T00:23:42.795Z,96736.41
2023-01-13T00:26:11.488Z,96726.22
2023-01-13T00:28:38.179Z,96742.03
2023-01-13T00:31:06.529Z,96726.75
2023-01-13T00:33:33.268Z,96728.34
2023-01-13T00:36:00.381Z,96728.91
2023-01-13T00:38:27.204Z,96732.38
2023-01-13T00:41:07.325Z,96728.38
2023-01-13T00:43:34.794Z,96721.38
2023-01-13T00:46:01.863Z,96725.69
2023-01-13T00:48:28.795Z,96698.66
2023-01-13T00:51:01.943Z,96721.88
2023-01-13T00:53:29.145Z,96693.25
2023-01-13T00:56:38.524Z,96729.94
2023-01-13T00:59:06.230Z,96719.25
2023-01-13T01:01:33.199Z,96726.44
2023-01-13T01:03:59.965Z,96717.06
2023-01-13T01:06:26.849Z,96716.53
2023-01-13T01:08:54.145Z,96712.53
2023-01-13T01:11:25.182Z,96694.56
2023-01-13T01:13:52.313Z,96718.16
2023-01-13T01:16:20.029Z,96672.91
2023-01-13T01:18:47.359Z,96690.88
2023-01-13T01:21:14.331Z,96690.88
2023-01-13T01:23:41.188Z,96697.03
2023-01-13T01:26:10.639Z,96716.78
2023-01-13T01:28:37.295Z,96692.44
2023-01-13T01:31:08.085Z,96681.75
2023-01-13T01:33:34.760Z,96682.53
2023-01-13T01:36:02.200Z,96670.75
2023-01-13T01:38:28.856Z,96690.28
2023-01-13T01:40:55.533Z,96687.06
2023-01-13T01:43:22.881Z,96652.84
2023-01-13T01:45:49.575Z,96674.81
2023-01-13T01:48:16.275Z,96674.25
2023-01-13T01:50:43.204Z,96682.25
2023-01-13T01:53:12.713Z,96664.34
2023-01-13T01:55:39.383Z,96653.34
2023-01-13T01:58:10.075Z,96652.78
2023-01-13T02:00:36.784Z,96650.63
2023-01-13T02:03:03.854Z,96645.81
2023-01-13T02:05:30.538Z,96679.53
2023-01-13T02:07:57.737Z,96660.53
2023-01-13T02:10:25.323Z,96666.94
2023-01-13T02:12:51.973Z,96661.34
2023-01-13T02:15:24.464Z,96643.38
2023-01-13T02:18:06.639Z,96676.03
2023-01-13T02:20:35.844Z,96656.19
2023-01-13T02:23:24.341Z,96684.34
2023-01-13T02:26:02.776Z,96640.66
2023-01-13T02:28:52.454Z,96630.22
2023-01-13T02:31:19.155Z,96644.16
2023-01-13T02:34:04.556Z,96592.97
2023-01-13T02:36:38.379Z,96638.78
2023-01-13T02:39:19.176Z,96643.84
2023-01-13T02:41:56.814Z,96641.94
2023-01-13T02:44:27.850Z,96639.81
2023-01-13T02:47:14.305Z,96633.00
2023-01-13T02:49:47.009Z,96607.34
2023-01-13T02:52:27.776Z,96642.44
2023-01-13T02:54:55.836Z,96643.53
2023-01-13T02:57:22.611Z,96621.06
2023-01-13T02:59:49.267Z,96639.31
2023-01-13T03:02:18.270Z,96623.75
2023-01-13T03:04:46.085Z,96615.09
2023-01-13T03:07:17.111Z,96653.22
2023-01-13T03:09:45.876Z,96625.88
2023-01-13T03:12:15.350Z,96593.97
2023-01-13T03:14:44.804Z,96610.03
2023-01-13T03:17:20.187Z,96609.25
2023-01-13T03:19:57.670Z,96628.34
2023-01-13T03:22:34.805Z,96628.00
2023-01-13T03:25:13.830Z,96631.91
2023-01-13T03:28:00.531Z,96614.53
2023-01-13T03:30:28.697Z,96635.44
2023-01-13T03:33:07.404Z,96637.63
2023-01-13T03:35:39.681Z,96622.09
2023-01-13T03:38:14.837Z,96647.25
2023-01-13T03:40:52.537Z,96619.66
2023-01-13T03:43:36.926Z,96623.63
2023-01-13T03:46:07.417Z,96608.31
2023-01-13T03:48:34.462Z,96624.06
2023-01-13T03:51:07.140Z,96616.88
2023-01-13T03:53:37.200Z,96590.38
2023-01-13T03:56:17.834Z,96601.25
2023-01-13T03:58:44.773Z,96591.38
2023-01-13T04:01:16.515Z,96594.06
2023-01-13T04:03:46.073Z,96595.91
2023-01-13T04:06:15.898Z,96605.47
2023-01-13T04:08:47.072Z,96609.41
2023-01-13T04:11:17.929Z,96606.06
2023-01-13T04:13:44.464Z,96594.63
2023-01-13T04:16:11.085Z,96597.78
2023-01-13T04:18:38.745Z,96599.28
2023-01-13T04:21:07.101Z,96572.31
2023-01-13T04:23:33.707Z,96587.41
2023-01-13T04:26:00.302Z,96561.06
2023-01-13T04:28:26.921Z,96581.22
2023-01-13T04:30:53.547Z,96566.81
2023-01-13T04:33:20.269Z,96569.13
2023-01-13T04:35:47.107Z,96573.81
2023-01-13T04:38:14.767Z,96569.44
2023-01-13T04:40:41.489Z,96563.94
2023-01-13T04:43:08.156Z,96578.47
2023-01-13T04:45:34.758Z,96580.38
2023-01-13T04:48:01.383Z,96584.16
2023-01-13T04:50:27.926Z,96596.28
2023-01-13T04:52:54.547Z,96589.06
2023-01-13T04:55:22.146Z,96595.06
2023-01-13T04:57:48.765Z,96566.63
2023-01-13T05:00:17.254Z,96586.22
2023-01-13T05:02:43.820Z,96581.47
2023-01-13T05:05:10.587Z,96588.34
2023-01-13T05:07:37.650Z,96579.72
2023-01-13T05:10:04.467Z,96579.25
2023-01-13T05:12:31.055Z,96572.38
2023-01-13T05:14:57.601Z,96587.72
2023-01-13T05:17:24.241Z,96586.16
2023-01-13T05:19:50.976Z,96579.19
2023-01-13T05:22:17.771Z,96594.16
2023-01-13T05:24:44.349Z,96582.34
2023-01-13T05:27:10.886Z,96582.84
2023-01-13T05:29:37.529Z,96585.03
2023-01-13T05:32:04.267Z,96573.72
2023-01-13T05:34:32.411Z,96591.16
2023-01-13T05:36:58.967Z,96590.09
2023-01-13T05:39:25.582Z,96554.41
2023-01-13T05:41:52.098Z,96593.84
2023-01-13T05:44:18.650Z,96568.56
2023-01-13T05:46:45.270Z,96599.19
2023-01-13T05:49:11.844Z,96580.91
2023-01-13T05:51:38.471Z,96583.44
2023-01-13T05:54:05.075Z,96574.97
2023-01-13T05:56:31.953Z,96593.88
2023-01-13T05:58:58.541Z,96589.81
2023-01-13T06:01:25.091Z,96583.88
2023-01-13T06:03:51.750Z,96581.00
2023-01-13T06:06:18.302Z,96591.41
2023-01-13T06:08:44.876Z,96572.97
2023-01-13T06:11:11.460Z,96574.81
2023-01-13T06:13:38.080Z,96562.19
2023-01-13T06:16:04.916Z,96588.22
2023-01-13T06:18:31.767Z,96548.81
2023-01-13T06:20:58.358Z,96551.84
2023-01-13T06:23:24.952Z,96587.81
2023-01-13T06:26:16.923Z,96560.69
2023-01-13T06:28:43.448Z,96576.81
2023-01-13T06:31:10.035Z,96531.44
2023-01-13T06:33:37.988Z,96578.84
2023-01-13T06:36:11.918Z,96533.00
2023-01-13T06:38:39.636Z,96568.13
2023-01-13T06:41:06.311Z,96547.78
2023-01-13T06:43:32.930Z,96548.41
2023-01-13T06:45:59.453Z,96582.91
2023-01-13T06:48:27.839Z,96577.66
2023-01-13T06:50:54.386Z,96572.91
2023-01-13T06:53:21.221Z,96569.47
2023-01-13T06:55:47.845Z,96598.44
2023-01-13T06:58:15.185Z,96568.41
2023-01-13T07:00:42.124Z,96557.84
2023-01-13T07:03:15.731Z,96556.53
2023-01-13T07:05:43.363Z,96556.47
2023-01-13T07:08:10.165Z,96570.72
2023-01-13T07:10:36.870Z,96569.72
2023-01-13T07:13:04.137Z,96564.91
2023-01-13T07:15:30.672Z,96556.63
2023-01-13T07:17:58.593Z,96582.91
2023-01-13T07:20:25.151Z,96555.44
2023-01-13T07:22:54.978Z,96544.25
2023-01-13T07:25:21.834Z,96587.44
2023-01-13T07:27:48.363Z,96556.75
2023-01-13T07:30:14.986Z,96558.28
2023-01-13T07:32:41.522Z,96578.44
2023-01-13T07:35:08.102Z,96593.00
2023-01-13T07:37:39.110Z,96544.53
2023-01-13T07:40:06.546Z,96565.81
2023-01-13T07:42:33.235Z,96570.16
2023-01-13T07:44:59.832Z,96586.50
2023-01-13T07:47:26.368Z,96562.19
2023-01-13T07:49:53.047Z,96572.28
2023-01-13T07:52:19.596Z,96565.56
2023-01-13T07:54:46.206Z,96572.47
2023-01-13T07:57:12.789Z,96593.50
2023-01-13T07:59:39.289Z,96571.78
2023-01-13T08:02:06.318Z,96576.09
2023-01-13T08:04:33.828Z,96573.16
2023-01-13T08:07:00.353Z,96580.75
2023-01-13T08:09:27.059Z,96571.38
2023-01-13T08:11:56.779Z,96584.34
2023-01-13T08:14:23.326Z,96596.09
2023-01-13T08:16:50.179Z,96592.22
2023-01-13T08:19:16.713Z,96568.56
2023-01-13T08:21:43.333Z,96595.19
2023-01-13T08:24:10.351Z,96617.03
2023-01-13T08:26:36.935Z,96558.06
2023-01-13T08:29:03.461Z,96579.25
2023-01-13T08:31:30.001Z,96584.84
2023-01-13T08:33:56.542Z,96572.41
2023-01-13T08:36:23.103Z,96582.03
2023-01-13T08:38:49.610Z,96598.25
2023-01-13T08:41:16.448Z,96583.69
2023-01-13T08:43:43.980Z,96597.22
2023-01-13T08:46:10.660Z,96601.72
2023-01-13T08:48:37.214Z,96613.59
2023-01-13T08:51:05.331Z,96613.03
2023-01-13T08:53:31.985Z,96610.13
2023-01-13T08:55:58.556Z,96592.63
2023-01-13T08:58:25.937Z,96617.34
2023-01-13T09:00:52.549Z,96595.56
2023-01-13T09:03:19.969Z,96600.28
2023-01-13T09:05:46.503Z,96586.34
2023-01-13T09:08:13.078Z,96614.59
2023-01-13T09:10:39.613Z,96612.84
2023-01-13T09:13:06.167Z,96649.31
2023-01-13T09:15:33.980Z,96606.66
2023-01-13T09:18:00.552Z,96593.88
2023-01-13T09:20:27.909Z,96619.75
2023-01-13T09:22:54.428Z,96597.41
2023-01-13T09:25:20.977Z,96599.25
2023-01-13T09:27:47.542Z,96593.31
2023-01-13T09:30:14.421Z,96617.22
2023-01-13T09:32:41.021Z,96619.34
2023-01-13T09:35:08.888Z,96630.66
2023-01-13T09:37:37.797Z,96610.66
2023-01-13T09:40:06.870Z,96601.44
2023-01-13T09:42:48.626Z,96603.34
2023-01-13T09:45:29.932Z,96627.19
2023-01-13T09:48:01.858Z,96596.94
2023-01-13T09:50:37.559Z,96601.25
2023-01-13T09:53:06.162Z,96595.88
2023-01-13T09:55:33.162Z,96603.09
2023-01-13T09:58:01.482Z,96612.28
2023-01-13T10:00:36.066Z,96615.69
2023-01-13T10:03:20.927Z,96635.38
2023-01-13T10:05:47.501Z,96590.91
2023-01-13T10:08:26.716Z,96586.97
2023-01-13T10:10:58.994Z,96577.56
2023-01-13T10:13:29.231Z,96581.38
2023-01-13T10:16:12.897Z,96607.78
2023-01-13T10:19:17.056Z,96594.19
2023-01-13T10:22:02.131Z,96570.81
2023-01-13T10:24:48.246Z,96571.75
2023-01-13T10:27:18.911Z,96543.41
2023-01-13T10:29:45.508Z,96557.81
2023-01-13T10:32:12.010Z,96569.25
2023-01-13T10:34:49.790Z,96558.28
2023-01-13T10:37:21.234Z,96573.22
2023-01-13T10:39:48.192Z,96561.41
2023-01-13T10:42:19.441Z,96564.25
2023-01-13T10:44:51.832Z,96562.34
2023-01-13T10:47:25.779Z,96564.34
2023-01-13T10:50:00.633Z,96545.28
2023-01-13T10:52:34.204Z,96548.16
2023-01-13T10:55:00.967Z,96528.50
2023-01-13T10:57:27.733Z,96538.47
2023-01-13T10:59:54.516Z,96548.88
2023-01-13T11:02:30.926Z,96529.97
2023-01-13T11:05:00.505Z,96532.75
2023-01-13T11:07:34.266Z,96521.13
2023-01-13T11:10:16.828Z,96545.47
2023-01-13T11:12:53.771Z,96518.56
2023-01-13T11:15:22.738Z,96519.47
2023-01-13T11:18:01.094Z,96534.78
2023-01-13T11:20:35.719Z,96527.69
2023-01-13T11:23:07.701Z,96524.38
2023-01-13T11:25:39.797Z,96505.09
2023-01-13T11:28:21.962Z,96527.09
2023-01-13T11:30:50.917Z,96523.03
2023-01-13T11:33:27.310Z,96517.63
2023-01-13T11:36:28.768Z,96536.56
2023-01-13T11:39:30.843Z,96555.06
2023-01-13T11:42:10.681Z,96549.63
2023-01-13T11:44:40.710Z,96537.25
2023-01-13T11:47:07.840Z,96547.91
2023-01-13T11:49:34.654Z,96525.94
2023-01-13T11:52:06.844Z,96523.66
2023-01-13T11:54:44.661Z,96538.72
2023-01-13T11:57:33.991Z,96552.78
2023-01-13T12:00:15.749Z,96551.88
2023-01-13T12:03:01.198Z,96538.13
2023-01-13T12:05:40.418Z,96546.31
2023-01-13T12:08:31.637Z,96524.44
2023-01-13T12:11:16.642Z,96544.13
2023-01-13T12:14:08.624Z,96553.47
2023-01-13T12:16:36.699Z,96542.31
2023-01-13T12:19:15.272Z,96530.06
2023-01-13T12:21:50.596Z,96544.78
2023-01-13T12:24:25.289Z,96557.19
2023-01-13T12:27:02.783Z,96543.69
2023-01-13T12:29:33.584Z,96602.31
2023-01-13T12:32:01.677Z,96589.88
2023-01-13T12:34:47.753Z,96583.13
2023-01-13T12:37:14.085Z,96593.09
2023-01-13T12:40:02.600Z,96578.84
2023-01-13T12:42:57.011Z,96589.47
2023-01-13T12:45:30.331Z,96573.00
2023-01-13T12:47:57.497Z,96617.06
2023-01-13T12:50:24.592Z,96586.00
2023-01-13T12:52:51.718Z,96593.66
2023-01-13T12:55:20.540Z,96604.75
2023-01-13T12:57:59.685Z,96577.00
2023-01-13T13:00:37.367Z,96593.41
2023-01-13T13:03:12.956Z,96586.63
2023-01-13T13:05:45.329Z,96590.16
2023-01-13T13:08:18.788Z,96598.03
2023-01-13T13:11:06.835Z,96633.22
2023-01-13T13:13:40.914Z,96601.81
2023-01-13T13:16:25.786Z,96612.94
2023-01-13T13:18:53.216Z,96598.84
2023-01-13T13:21:19.799Z,96624.25
2023-01-13T13:24:00.337Z,96639.94
2023-01-13T13:26:37.741Z,96622.84
2023-01-13T13:29:31.507Z,96650.13
2023-01-13T13:32:03.908Z,96651.47
2023-01-13T13:34:53.286Z,96649.34
2023-01-13T13:37:34.804Z,96639.78
2023-01-13T13:40:03.467Z,96631.75
2023-01-13T13:42:36.399Z,96664.84
2023-01-13T13:45:07.404Z,96650.75
2023-01-13T13:47:37.531Z,96641.91
2023-01-13T13:50:15.603Z,96615.41
2023-01-13T13:52:46.210Z,96642.56
2023-01-13T13:55:17.157Z,96628.66
2023-01-13T13:57:45.751Z,96600.47
2023-01-13T14:00:15.314Z,96638.03
2023-01-13T14:02:53.525Z,96667.78
2023-01-13T14:05:23.971Z,96670.22
2023-01-13T14:08:10.020Z,96621.25
2023-01-13T14:10:37.880Z,96700.34
2023-01-13T14:13:27.494Z,96682.19
2023-01-13T14:16:06.467Z,96694.25
2023-01-13T14:18:35.486Z,96687.53
2023-01-13T14:21:17.402Z,96712.53
2023-01-13T14:23:50.738Z,96672.94
2023-01-13T14:26:17.270Z,96704.81
2023-01-13T14:28:43.816Z,96674.34
2023-01-13T14:31:12.131Z,96667.66
2023-01-13T14:33:46.321Z,96692.91
2023-01-13T14:36:23.070Z,96689.16
2023-01-13T14:39:09.759Z,96711.94
2023-01-13T14:41:42.480Z,96757.75
2023-01-13T14:44:31.252Z,96723.75
2023-01-13T14:47:02.624Z,96693.47
2023-01-13T14:49:38.581Z,96756.19
2023-01-13T14:52:11.032Z,96746.53
2023-01-13T14:54:47.341Z,96724.84
2023-01-13T14:57:24.629Z,96730.22
2023-01-13T15:00:16.322Z,96733.97
2023-01-13T15:02:47.079Z,96731.03
2023-01-13T15:05:19.274Z,96724.59
2023-01-13T15:07:51.745Z,96748.47
2023-01-13T15:10:18.944Z,96742.31
2023-01-13T15:12:45.509Z,96730.03
2023-01-13T15:15:29.238Z,96771.53
2023-01-13T15:17:56.240Z,96771.78
2023-01-13T15:20:23.649Z,96781.13
2023-01-13T15:22:50.880Z,96746.59
2023-01-13T15:25:18.214Z,96705.41
2023-01-13T15:27:45.076Z,96736.19
2023-01-13T15:30:22.428Z,96760.53
2023-01-13T15:32:48.987Z,96759.75
2023-01-13T15:35:16.041Z,96742.09
2023-01-13T15:37:43.273Z,96756.28
2023-01-13T15:40:24.077Z,96780.09
2023-01-13T15:42:50.817Z,96798.28
2023-01-13T15:45:17.367Z,96820.75
2023-01-13T15:47:43.886Z,96814.56
2023-01-13T15:50:18.182Z,96705.88
2023-01-13T15:52:44.729Z,96834.31
2023-01-13T15:55:11.277Z,96828.44
2023-01-13T15:57:40.160Z,96817.19
2023-01-13T16:00:19.151Z,96843.13
2023-01-13T16:02:45.851Z,96861.00
2023-01-13T16:05:14.150Z,96861.56
2023-01-13T16:07:40.860Z,96870.66
2023-01-13T16:10:18.418Z,96864.50
2023-01-13T16:12:44.980Z,96857.22
2023-01-13T16:15:15.623Z,96891.16
2023-01-13T16:17:42.768Z,96873.19
2023-01-13T16:20:16.427Z,96879.66
2023-01-13T16:22:43.046Z,96873.22
2023-01-13T16:25:15.683Z,96903.16
2023-01-13T16:27:42.284Z,96892.47
2023-01-13T16:30:23.772Z,96872.91
2023-01-13T16:32:50.353Z,96879.56
2023-01-13T16:35:16.947Z,96876.88
2023-01-13T16:37:43.519Z,96900.94
2023-01-13T16:40:13.165Z,96901.44
2023-01-13T16:42:39.723Z,96917.91
2023-01-13T16:45:08.257Z,96898.72
2023-01-13T16:47:36.586Z,96892.34
2023-01-13T16:50:04.133Z,96923.06
2023-01-13T16:52:30.653Z,96931.97
2023-01-13T16:54:57.256Z,96896.91
2023-01-13T16:57:23.854Z,96899.50
2023-01-13T16:59:50.458Z,96887.25
2023-01-13T17:02:17.091Z,96932.91
2023-01-13T17:04:44.125Z,96931.91
2023-01-13T17:07:12.825Z,96917.19
2023-01-13T17:09:39.411Z,96957.34
2023-01-13T17:12:06.063Z,96933.75
2023-01-13T17:14:32.615Z,96961.06
2023-01-13T17:16:59.213Z,96941.81
2023-01-13T17:19:26.133Z,96980.78
2023-01-13T17:21:52.714Z,96969.59
2023-01-13T17:24:19.282Z,96971.69
2023-01-13T17:26:47.320Z,96972.44
2023-01-13T17:29:22.050Z,96956.63
2023-01-13T17:31:52.439Z,96980.72
2023-01-13T17:34:19.506Z,96977.78
2023-01-13T17:36:46.154Z,96981.44
2023-01-13T17:39:17.002Z,97002.28
2023-01-13T17:41:44.068Z,96999.06
2023-01-13T17:44:13.340Z,97003.09
2023-01-13T17:46:39.915Z,97013.47
2023-01-13T17:49:06.436Z,97003.50
2023-01-13T17:51:34.064Z,97004.28
2023-01-13T17:54:00.604Z,96998.41
2023-01-13T17:56:28.041Z,96992.38
2023-01-13T17:58:54.567Z,97000.09
2023-01-13T18:01:21.629Z,96993.38
2023-01-13T18:03:48.382Z,97008.63
2023-01-13T18:06:19.187Z,97018.69
2023-01-13T18:08:45.843Z,97033.53
2023-01-13T18:11:12.747Z,97016.84
2023-01-13T18:13:39.278Z,97014.94
2023-01-13T18:16:07.220Z,97032.81
2023-01-13T18:18:33.790Z,97038.09
2023-01-13T18:21:01.968Z,97050.06
2023-01-13T18:23:28.526Z,97042.28
2023-01-13T18:25:55.071Z,97042.00
2023-01-13T18:28:21.578Z,97031.31
2023-01-13T18:33:39.285Z,97052.03
2023-01-13T18:36:07.368Z,97051.44
2023-01-13T18:38:34.226Z,97048.81
2023-01-13T18:41:00.831Z,97048.75
2023-01-13T18:43:30.963Z,97061.03
2023-01-13T18:45:57.563Z,97052.78
2023-01-13T18:48:24.078Z,97049.31
2023-01-13T18:50:50.596Z,97052.72
2023-01-13T18:53:17.297Z,97044.72
2023-01-13T18:55:43.823Z,97067.00
2023-01-13T18:58:10.317Z,97057.91
2023-01-13T19:00:36.917Z,97081.03
2023-01-13T19:05:32.758Z,97060.94
2023-01-13T19:07:59.360Z,97050.50
2023-01-13T19:10:25.915Z,97051.84
2023-01-13T19:12:52.435Z,97072.06
2023-01-13T19:15:20.164Z,97070.44
2023-01-13T19:17:46.737Z,97032.63
2023-01-13T19:20:13.322Z,97063.50
2023-01-13T19:22:39.885Z,97058.78
2023-01-13T19:25:06.589Z,97074.00
2023-01-13T19:27:33.146Z,97019.19
2023-01-13T19:29:59.735Z,97064.13
2023-01-13T19:32:26.709Z,97060.03
2023-01-13T19:34:53.620Z,97073.38
2023-01-13T19:37:20.196Z,97091.06
2023-01-13T19:39:47.244Z,97066.69
2023-01-13T19:42:13.834Z,97065.09
2023-01-13T19:44:40.381Z,97077.63
2023-01-13T19:47:07.756Z,97078.63
2023-01-13T19:49:34.527Z,97052.69
2023-01-13T19:52:01.087Z,97070.22
2023-01-13T19:54:27.909Z,97094.81
2023-01-13T19:56:54.458Z,97102.84
2023-01-13T19:59:21.013Z,97087.94
2023-01-13T20:01:50.832Z,97079.03
2023-01-13T20:04:17.402Z,97090.28
2023-01-13T20:06:44.105Z,97095.13
2023-01-13T20:09:10.873Z,97068.16
2023-01-13T20:11:37.423Z,97113.38
2023-01-13T20:14:03.997Z,97078.88
2023-01-13T20:16:30.772Z,97099.50
2023-01-13T20:18:57.312Z,97091.13
2023-01-13T20:21:23.865Z,97118.63
2023-01-13T20:23:50.983Z,97116.75
2023-01-13T20:26:18.002Z,97105.34
2023-01-13T20:28:44.596Z,97137.72
2023-01-13T20:31:11.818Z,97136.84
2023-01-13T20:33:38.517Z,97118.31
2023-01-13T20:36:05.922Z,97142.38
2023-01-13T20:38:32.485Z,97130.66
2023-01-13T20:40:59.759Z,97145.06
2023-01-13T20:43:26.341Z,97142.56
2023-01-13T20:45:52.936Z,97141.47
2023-01-13T20:48:19.906Z,97125.88
2023-01-13T20:50:52.143Z,97169.88
2023-01-13T20:53:18.711Z,97145.63
2023-01-13T20:55:45.289Z,97140.91
2023-01-13T20:58:12.086Z,97163.75
2023-01-13T21:00:38.681Z,97153.63
2023-01-13T21:03:05.703Z,97164.50
2023-01-13T21:05:32.243Z,97160.22
2023-01-13T21:07:58.774Z,97135.13
2023-01-13T21:10:25.476Z,97181.13
2023-01-13T21:12:52.009Z,97148.84
2023-01-13T21:15:18.574Z,97150.78
2023-01-13T21:17:45.694Z,97146.81
2023-01-13T21:20:13.685Z,97160.34
2023-01-13T21:22:43.503Z,97174.59
2023-01-13T21:25:10.174Z,97170.59
2023-01-13T21:27:36.706Z,97183.09
2023-01-13T21:30:03.372Z,97159.59
2023-01-13T21:32:30.655Z,97185.78
2023-01-13T21:34:57.589Z,97169.94
2023-01-13T21:37:24.367Z,97187.66
2023-01-13T21:39:51.261Z,97168.34
2023-01-13T21:42:17.829Z,97193.97
2023-01-13T21:44:44.362Z,97217.72
2023-01-13T21:47:18.489Z,97182.38
2023-01-13T21:49:45.040Z,97207.16
2023-01-13T21:52:11.937Z,97192.69
2023-01-13T21:54:38.679Z,97199.56
2023-01-13T21:57:05.177Z,97214.53
2023-01-13T21:59:32.632Z,97218.03
2023-01-13T22:02:23.437Z,97233.47
2023-01-13T22:04:45.730Z,97199.94
2023-01-13T22:07:12.292Z,97198.41
2023-01-13T22:09:38.869Z,97215.47
2023-01-13T22:12:05.612Z,97234.56
2023-01-13T22:14:32.611Z,97226.56
2023-01-13T22:16:59.237Z,97231.19
2023-01-13T22:19:25.787Z,97244.53
2023-01-13T22:21:52.358Z,97244.75
2023-01-13T22:24:18.917Z,97247.75
2023-01-13T22:26:45.478Z,97244.22
2023-01-13T22:29:12.055Z,97255.84
2023-01-13T22:31:39.293Z,97260.84
2023-01-13T22:34:05.857Z,97233.75
2023-01-13T22:36:32.432Z,97242.56
2023-01-13T22:38:59.015Z,97231.03
2023-01-13T22:41:25.577Z,97250.84
2023-01-13T22:43:52.367Z,97246.88
2023-01-13T22:46:19.007Z,97236.28
2023-01-13T22:48:45.573Z,97265.16
2023-01-13T22:51:13.965Z,97272.84
2023-01-13T22:53:40.722Z,97251.16
2023-01-13T22:56:07.624Z,97258.84
2023-01-13T22:58:34.165Z,97264.84
2023-01-13T23:01:08.367Z,97274.22
2023-01-13T23:03:34.945Z,97294.75
2023-01-13T23:06:01.536Z,97283.03
2023-01-13T23:08:28.142Z,97288.69
2023-01-13T23:11:09.485Z,97292.41
2023-01-13T23:13:36.136Z,97294.91
2023-01-13T23:16:03.677Z,97279.53
2023-01-13T23:18:30.390Z,97302.25
2023-01-13T23:20:56.976Z,97281.63
2023-01-13T23:23:23.472Z,97185.19
2023-01-13T23:25:50.994Z,97321.25
2023-01-13T23:28:17.663Z,97284.38
2023-01-13T23:30:44.196Z,97279.13
2023-01-13T23:33:10.800Z,97279.03
2023-01-13T23:35:37.397Z,97299.41
2023-01-13T23:38:04.095Z,97316.16
2023-01-13T23:40:30.626Z,97308.16
2023-01-13T23:42:57.168Z,97270.22
2023-01-13T23:45:23.731Z,97278.78
2023-01-13T23:47:50.301Z,97326.38
2023-01-13T23:50:17.187Z,97285.50
2023-01-13T23:52:43.809Z,97287.03
2023-01-13T23:55:10.338Z,97297.00
2023-01-13T23:57:36.873Z,97310.88
